Aviation Digital Data Service (ADDS)

Output produced by METARs form (1332 UTC 26 May 2018)
found at http://www.aviationweather.gov/adds/metars/
 
TAF MDST 261000Z 2612/2712 13016KT 9999 SCT022 SCT070 
     BECMG 2612/2614 11005KT
       
TAF MDPP 261000Z 2612/2712 00000KT 9999 FEW018 
     PROB30 2612/2618 8000 -SH BKN016 
     BECMG 2614/2616 09010KT
       
TAF MDLR 261000Z 2612/2712 00000KT 9999 SCT016 SCT070 
     PROB40 2612/2618 7000 -TSRA FEW014CB BKN016 BKN070 
     BECMG 2615/2617 17012KT
       
TAF MDSD 261000Z 2612/2712 04004KT 9999 SCT016 
     BECMG 2614/2616 14015KT 
     PROB30 2616/2622 7000 ?RA FEW018CB SCT018 SCT300
       
TAF MDBH 261000Z 2612/2712 13010KT 9999 FEW016CB BKN018 
     PROB30 
     TEMPO 2612/2616 8000-RA FEW016CB BKN018 BKN070 
     BECMG 2618/2620 13015KT
       
TAF MDPC 261000Z 2612/2712 12010KT 9999 SCT020 SCT070 
     PROB30 2616/2622 8000 -RA SCT014 BKN070